createdAt,value
2018-05-14T00:00:00.701Z,97.10
2018-05-14T00:02:28.135Z,97.20
2018-05-14T00:04:55.566Z,97.20
2018-05-14T00:07:22.999Z,97.40
2018-05-14T00:09:50.476Z,97.40
2018-05-14T00:12:17.908Z,97.50
2018-05-14T00:14:45.348Z,97.40
2018-05-14T00:17:12.782Z,97.00
2018-05-14T00:19:40.982Z,97.30
2018-05-14T00:22:08.407Z,97.00
2018-05-14T00:24:35.842Z,97.00
2018-05-14T00:27:03.296Z,97.10
2018-05-14T00:29:30.734Z,96.90
2018-05-14T00:31:58.182Z,96.80
2018-05-14T00:34:25.602Z,96.90
2018-05-14T00:36:53.027Z,96.80
2018-05-14T00:39:20.481Z,96.90
2018-05-14T00:41:47.919Z,97.10
2018-05-14T00:44:15.346Z,97.00
2018-05-14T00:46:42.939Z,97.10
2018-05-14T00:49:10.374Z,97.10
2018-05-14T00:51:37.798Z,97.20
2018-05-14T00:54:05.487Z,97.20
2018-05-14T00:56:32.923Z,97.20
2018-05-14T00:59:00.349Z,97.10
2018-05-14T01:01:27.776Z,97.10
2018-05-14T01:03:55.211Z,97.20
2018-05-14T01:06:22.654Z,97.20
2018-05-14T01:08:50.082Z,97.30
2018-05-14T01:11:17.526Z,97.30
2018-05-14T01:13:44.968Z,97.40
2018-05-14T01:16:12.545Z,97.30
2018-05-14T01:18:39.989Z,97.30
2018-05-14T01:21:07.414Z,97.30
2018-05-14T01:23:34.846Z,97.30
2018-05-14T01:26:02.286Z,97.40
2018-05-14T01:28:29.730Z,97.30
2018-05-14T01:30:57.159Z,97.20
2018-05-14T01:33:24.581Z,97.20
2018-05-14T01:35:52.005Z,97.30
2018-05-14T01:38:19.435Z,97.30
2018-05-14T01:40:46.881Z,97.30
2018-05-14T01:43:14.299Z,97.30
2018-05-14T01:45:41.738Z,97.40
2018-05-14T01:48:09.185Z,97.40
2018-05-14T01:50:36.609Z,97.40
2018-05-14T01:53:04.062Z,97.40
2018-05-14T01:55:31.498Z,97.30
2018-05-14T01:57:58.932Z,97.20
2018-05-14T02:00:26.642Z,97.30
2018-05-14T02:02:54.071Z,97.30
2018-05-14T02:05:21.520Z,97.40
2018-05-14T02:07:49.724Z,97.20
2018-05-14T02:10:17.142Z,97.20
2018-05-14T02:12:45.357Z,97.20
2018-05-14T02:15:12.776Z,97.20
2018-05-14T02:17:40.228Z,97.10
2018-05-14T02:20:07.655Z,97.20
2018-05-14T02:22:35.090Z,97.20
2018-05-14T02:25:02.529Z,97.30
2018-05-14T02:27:29.961Z,97.30
2018-05-14T02:29:57.399Z,97.30
2018-05-14T02:32:24.822Z,97.40
2018-05-14T02:34:52.253Z,97.40
2018-05-14T02:37:19.706Z,97.50
2018-05-14T02:39:47.139Z,97.60
2018-05-14T02:42:14.570Z,97.60
2018-05-14T02:44:42.046Z,97.60
2018-05-14T02:47:09.464Z,97.60
2018-05-14T02:49:36.905Z,97.50
2018-05-14T02:52:04.351Z,97.50
2018-05-14T02:54:31.775Z,97.50
2018-05-14T02:57:00.118Z,97.60
2018-05-14T02:59:27.551Z,97.50
2018-05-14T03:01:54.985Z,97.60
2018-05-14T03:04:22.427Z,97.60
2018-05-14T03:06:49.868Z,97.60
2018-05-14T03:09:17.303Z,97.70
2018-05-14T03:11:44.744Z,97.60
2018-05-14T03:14:12.187Z,97.70
2018-05-14T03:16:39.618Z,97.70
2018-05-14T03:19:07.367Z,97.60
2018-05-14T03:21:35.388Z,97.60
2018-05-14T03:24:02.819Z,97.70
2018-05-14T03:26:30.274Z,97.70
2018-05-14T03:28:57.726Z,97.80
2018-05-14T03:31:25.181Z,97.70
2018-05-14T03:33:52.612Z,97.70
2018-05-14T03:36:20.063Z,97.70
2018-05-14T03:38:48.261Z,97.70
2018-05-14T03:41:15.706Z,97.70
2018-05-14T03:43:43.164Z,97.70
2018-05-14T03:46:10.586Z,97.70
2018-05-14T03:48:38.019Z,97.70
2018-05-14T03:51:05.774Z,97.70
2018-05-14T03:53:33.206Z,97.70
2018-05-14T03:56:00.639Z,97.70
2018-05-14T03:58:39.755Z,97.80
2018-05-14T04:01:14.795Z,97.80
2018-05-14T04:03:54.838Z,97.80
2018-05-14T04:06:34.099Z,97.80
2018-05-14T04:09:01.561Z,97.70
2018-05-14T04:11:29.763Z,97.60
2018-05-14T04:13:57.197Z,97.60
2018-05-14T04:16:25.450Z,97.60
2018-05-14T04:18:53.948Z,97.60
2018-05-14T04:21:21.390Z,97.60
2018-05-14T04:23:48.838Z,97.60
2018-05-14T04:26:16.269Z,97.70
2018-05-14T04:28:43.968Z,97.70
2018-05-14T04:31:11.392Z,97.70
2018-05-14T04:33:38.816Z,97.60
2018-05-14T04:36:06.557Z,97.60
2018-05-14T04:38:33.978Z,97.60
2018-05-14T04:41:01.406Z,97.60
2018-05-14T04:43:28.863Z,97.40
2018-05-14T04:45:56.296Z,97.20
2018-05-14T04:48:24.246Z,97.10
2018-05-14T04:50:51.716Z,97.00
2018-05-14T04:53:19.178Z,97.10
2018-05-14T04:55:46.611Z,97.10
2018-05-14T04:58:14.049Z,96.90
2018-05-14T05:00:41.507Z,96.90
2018-05-14T05:03:08.940Z,97.00
2018-05-14T05:05:36.399Z,97.00
2018-05-14T05:08:03.842Z,97.00
2018-05-14T05:10:31.360Z,97.00
2018-05-14T05:12:58.711Z,97.10
2018-05-14T05:15:26.153Z,97.00
2018-05-14T05:17:53.583Z,97.10
2018-05-14T05:20:21.010Z,97.20
2018-05-14T05:22:48.454Z,96.80
2018-05-14T05:25:15.872Z,96.60
2018-05-14T05:27:43.315Z,96.60
2018-05-14T05:30:10.902Z,96.60
2018-05-14T05:32:38.387Z,96.70
2018-05-14T05:35:05.804Z,96.60
2018-05-14T05:37:33.253Z,96.60
2018-05-14T05:40:00.686Z,96.90
2018-05-14T05:42:28.100Z,96.60
2018-05-14T05:44:56.451Z,96.80
2018-05-14T05:47:23.877Z,96.80
2018-05-14T05:49:51.310Z,96.80
2018-05-14T05:52:19.764Z,96.40
2018-05-14T05:54:47.107Z,96.40
2018-05-14T05:57:14.543Z,96.20
2018-05-14T05:59:41.984Z,96.00
2018-05-14T06:02:09.740Z,96.10
2018-05-14T06:04:37.166Z,95.90
2018-05-14T06:07:04.602Z,95.70
2018-05-14T06:09:32.434Z,95.80
2018-05-14T06:11:59.843Z,95.70
2018-05-14T06:14:27.277Z,95.30
2018-05-14T06:16:54.725Z,95.30
2018-05-14T06:19:22.154Z,95.30
2018-05-14T06:21:49.866Z,95.30
2018-05-14T06:24:18.073Z,94.80
2018-05-14T06:26:46.446Z,94.80
2018-05-14T06:29:14.035Z,94.60
2018-05-14T06:31:41.483Z,94.70
2018-05-14T06:34:08.924Z,94.50
2018-05-14T06:36:36.367Z,94.60
2018-05-14T06:39:03.837Z,94.70
2018-05-14T06:41:31.281Z,94.70
2018-05-14T06:43:58.867Z,94.90
2018-05-14T06:46:26.301Z,94.70
2018-05-14T06:48:53.745Z,94.00
2018-05-14T06:51:21.187Z,93.40
2018-05-14T06:53:48.616Z,93.50
2018-05-14T06:56:16.059Z,93.70
2018-05-14T06:58:44.262Z,93.20
2018-05-14T07:01:11.694Z,93.10
2018-05-14T07:03:39.886Z,91.90
2018-05-14T07:06:07.603Z,91.90
2018-05-14T07:08:35.039Z,91.60
2018-05-14T07:11:02.475Z,91.60
2018-05-14T07:13:29.909Z,91.30
2018-05-14T07:15:58.120Z,92.20
2018-05-14T07:18:25.554Z,92.20
2018-05-14T07:20:53.013Z,92.10
2018-05-14T07:23:20.442Z,91.90
2018-05-14T07:25:47.898Z,91.40
2018-05-14T07:28:15.340Z,91.50
2018-05-14T07:30:42.783Z,91.20
2018-05-14T07:33:10.271Z,91.30
2018-05-14T07:35:37.647Z,91.50
2018-05-14T07:38:05.116Z,91.80
2018-05-14T07:40:32.700Z,92.00
2018-05-14T07:43:00.182Z,91.90
2018-05-14T07:45:27.571Z,92.00
2018-05-14T07:47:55.017Z,91.50
2018-05-14T07:50:22.473Z,90.90
2018-05-14T07:52:49.959Z,91.00
2018-05-14T07:55:17.400Z,91.10
2018-05-14T07:57:44.782Z,90.90
2018-05-14T08:00:12.455Z,90.50
2018-05-14T08:02:39.791Z,90.80
2018-05-14T08:05:07.230Z,90.80
2018-05-14T08:07:34.923Z,90.50
2018-05-14T08:10:02.357Z,90.60
2018-05-14T08:12:29.790Z,90.60
2018-05-14T08:14:57.303Z,90.40
2018-05-14T08:17:24.737Z,90.30
2018-05-14T08:19:52.926Z,90.70
2018-05-14T08:22:20.502Z,90.70
2018-05-14T08:24:47.927Z,90.80
2018-05-14T08:27:15.360Z,91.10
2018-05-14T08:29:42.802Z,91.20
2018-05-14T08:32:10.235Z,91.50
2018-05-14T08:34:37.678Z,91.90
2018-05-14T08:37:05.237Z,92.20
2018-05-14T08:39:32.567Z,92.40
2018-05-14T08:42:00.027Z,92.60
2018-05-14T08:44:27.464Z,92.40
2018-05-14T08:46:54.898Z,92.40
2018-05-14T08:49:22.335Z,92.20
2018-05-14T08:51:49.767Z,91.90
2018-05-14T08:54:17.346Z,91.30
2018-05-14T08:56:44.636Z,91.10
2018-05-14T08:59:12.079Z,91.00
2018-05-14T09:01:39.675Z,90.50
2018-05-14T09:04:07.112Z,90.20
2018-05-14T09:06:34.530Z,90.30
2018-05-14T09:09:01.967Z,90.10
2018-05-14T09:11:29.402Z,90.20
2018-05-14T09:13:57.882Z,90.30
2018-05-14T09:16:25.316Z,90.30
2018-05-14T09:18:52.749Z,90.50
2018-05-14T09:21:20.207Z,90.90
2018-05-14T09:23:47.673Z,91.00
2018-05-14T09:26:15.107Z,91.10
2018-05-14T09:28:42.535Z,91.40
2018-05-14T09:31:09.982Z,91.60
2018-05-14T09:33:37.419Z,91.60
2018-05-14T09:36:04.858Z,91.50
2018-05-14T09:38:32.299Z,92.10
2018-05-14T09:41:00.029Z,92.30
2018-05-14T09:43:27.466Z,92.00
2018-05-14T09:45:54.912Z,91.70
2018-05-14T09:48:22.361Z,91.90
2018-05-14T09:50:49.807Z,91.90
2018-05-14T09:53:17.260Z,92.00
2018-05-14T09:55:44.699Z,91.80
2018-05-14T09:58:12.905Z,91.50
2018-05-14T10:00:40.347Z,91.50
2018-05-14T10:03:07.779Z,91.20
2018-05-14T10:05:35.220Z,91.20
2018-05-14T10:08:02.663Z,91.30
2018-05-14T10:10:30.102Z,91.10
2018-05-14T10:12:57.582Z,91.20
2018-05-14T10:15:25.011Z,91.10
2018-05-14T10:17:52.516Z,91.10
2018-05-14T10:20:19.986Z,91.20
2018-05-14T10:22:47.415Z,91.50
2018-05-14T10:25:15.176Z,91.40
2018-05-14T10:27:42.618Z,91.20
2018-05-14T10:30:10.061Z,90.70
2018-05-14T10:32:37.515Z,90.80
2018-05-14T10:35:05.033Z,91.10
2018-05-14T10:37:32.479Z,91.40
2018-05-14T10:40:00.704Z,91.40
2018-05-14T10:42:28.151Z,91.30
2018-05-14T10:44:55.579Z,91.10
2018-05-14T10:47:23.036Z,90.70
2018-05-14T10:49:50.475Z,90.90
2018-05-14T10:52:17.919Z,90.90
2018-05-14T10:54:45.471Z,90.80
2018-05-14T10:57:12.905Z,90.50
2018-05-14T10:59:40.360Z,90.70
2018-05-14T11:02:08.130Z,90.90
2018-05-14T11:04:35.579Z,91.10
2018-05-14T11:07:03.011Z,91.10
2018-05-14T11:09:31.387Z,91.30
2018-05-14T11:11:58.867Z,91.60
2018-05-14T11:14:26.310Z,91.70
2018-05-14T11:16:54.563Z,91.80
2018-05-14T11:19:22.010Z,91.80
2018-05-14T11:21:49.452Z,92.00
2018-05-14T11:24:16.883Z,92.00
2018-05-14T11:26:44.331Z,92.20
2018-05-14T11:29:11.790Z,92.10
2018-05-14T11:31:39.228Z,91.90
2018-05-14T11:34:06.657Z,92.00
2018-05-14T11:36:34.117Z,91.90
2018-05-14T11:39:01.548Z,91.80
2018-05-14T11:41:29.005Z,91.40
2018-05-14T11:43:56.571Z,91.30
2018-05-14T11:46:24.028Z,91.30
2018-05-14T11:48:51.507Z,91.40
2018-05-14T11:51:18.963Z,91.30
2018-05-14T11:53:46.394Z,91.60
2018-05-14T11:56:13.838Z,91.70
2018-05-14T11:58:41.298Z,91.50
2018-05-14T12:01:08.738Z,92.00
2018-05-14T12:03:36.186Z,92.10
2018-05-14T12:06:03.643Z,92.50
2018-05-14T12:08:31.085Z,92.70
2018-05-14T12:10:58.710Z,92.90
2018-05-14T12:13:26.151Z,92.90
2018-05-14T12:15:53.741Z,92.90
2018-05-14T12:18:21.179Z,92.80
2018-05-14T12:20:48.625Z,92.50
2018-05-14T12:23:16.087Z,92.50
2018-05-14T12:25:44.840Z,92.10
2018-05-14T12:28:12.992Z,90.80
2018-05-14T12:30:40.514Z,90.80
2018-05-14T12:33:07.962Z,90.40
2018-05-14T12:35:35.537Z,90.40
2018-05-14T12:38:02.979Z,90.30
2018-05-14T12:40:32.459Z,89.40
2018-05-14T12:42:59.911Z,88.40
2018-05-14T12:45:28.296Z,89.10
2018-05-14T12:47:55.743Z,88.50
2018-05-14T12:50:24.013Z,87.90
2018-05-14T12:52:51.442Z,88.60
2018-05-14T12:55:18.887Z,89.70
2018-05-14T12:57:46.331Z,88.80
2018-05-14T13:00:13.791Z,88.50
2018-05-14T13:02:42.013Z,89.20
2018-05-14T13:05:09.460Z,89.20
2018-05-14T13:07:36.894Z,89.80
2018-05-14T13:10:04.357Z,90.10
2018-05-14T13:12:31.814Z,90.40
2018-05-14T13:14:59.386Z,90.40
2018-05-14T13:17:26.856Z,90.70
2018-05-14T13:19:54.280Z,91.00
2018-05-14T13:22:21.726Z,91.00
2018-05-14T13:24:49.288Z,91.10
2018-05-14T13:27:16.874Z,91.00
2018-05-14T13:29:44.333Z,91.00
2018-05-14T13:32:11.885Z,91.00
2018-05-14T13:34:39.889Z,90.90
2018-05-14T13:37:08.098Z,91.20
2018-05-14T13:39:35.768Z,91.20
2018-05-14T13:42:03.189Z,91.40
2018-05-14T13:44:32.237Z,91.30
2018-05-14T13:46:59.907Z,91.30
2018-05-14T13:49:27.346Z,91.30
2018-05-14T13:51:54.847Z,91.40
2018-05-14T13:54:22.442Z,91.30
2018-05-14T13:56:49.943Z,91.40
2018-05-14T13:59:17.573Z,91.10
2018-05-14T14:01:45.146Z,90.90
2018-05-14T14:04:12.580Z,90.70
2018-05-14T14:06:40.027Z,90.50
2018-05-14T14:09:08.237Z,90.00
2018-05-14T14:11:35.687Z,90.00
2018-05-14T14:14:03.119Z,89.60
2018-05-14T14:16:30.579Z,89.90
2018-05-14T14:18:58.802Z,89.20
2018-05-14T14:21:26.239Z,89.20
2018-05-14T14:23:53.833Z,89.60
2018-05-14T14:26:21.120Z,89.30
2018-05-14T14:28:48.549Z,89.80
2018-05-14T14:31:16.012Z,90.20
2018-05-14T14:33:43.740Z,90.20
2018-05-14T14:36:11.295Z,90.40
2018-05-14T14:38:38.622Z,90.50
2018-05-14T14:41:06.087Z,90.70
2018-05-14T14:43:33.581Z,90.80
2018-05-14T14:46:01.050Z,91.00
2018-05-14T14:48:28.491Z,90.70
2018-05-14T14:50:55.930Z,90.80
2018-05-14T14:53:23.391Z,90.70
2018-05-14T14:55:51.124Z,90.70
2018-05-14T14:58:18.693Z,90.70
2018-05-14T15:00:46.071Z,90.70
2018-05-14T15:03:13.827Z,90.60
2018-05-14T15:05:41.272Z,90.40
2018-05-14T15:08:08.702Z,90.60
2018-05-14T15:10:36.160Z,90.80
2018-05-14T15:13:03.598Z,91.00
2018-05-14T15:15:31.047Z,91.00
2018-05-14T15:17:58.508Z,91.30
2018-05-14T15:20:25.963Z,91.10
2018-05-14T15:22:53.419Z,91.20
2018-05-14T15:25:20.870Z,91.40
2018-05-14T15:27:48.319Z,91.30
2018-05-14T15:30:15.759Z,91.40
2018-05-14T15:32:46.630Z,91.60
2018-05-14T15:35:14.287Z,91.40
2018-05-14T15:37:41.778Z,91.30
2018-05-14T15:40:10.215Z,91.30
2018-05-14T15:42:37.667Z,91.20
2018-05-14T15:45:05.102Z,91.20
2018-05-14T15:47:32.543Z,91.20
2018-05-14T15:50:00.089Z,91.00
2018-05-14T15:52:27.435Z,91.10
2018-05-14T15:54:54.891Z,91.30
2018-05-14T15:57:22.335Z,91.40
2018-05-14T15:59:49.783Z,91.70
2018-05-14T16:02:17.261Z,91.80
2018-05-14T16:04:44.739Z,92.20
2018-05-14T16:07:12.186Z,92.40
2018-05-14T16:09:39.630Z,92.70
2018-05-14T16:12:07.086Z,93.00
2018-05-14T16:14:35.396Z,93.30
2018-05-14T16:17:02.803Z,93.30
2018-05-14T16:19:30.278Z,93.50
2018-05-14T16:21:57.728Z,93.60
2018-05-14T16:24:25.264Z,93.80
2018-05-14T16:26:52.620Z,93.70
2018-05-14T16:29:20.067Z,93.80
2018-05-14T16:31:48.275Z,93.80
2018-05-14T16:34:15.744Z,93.70
2018-05-14T16:36:43.190Z,93.80
2018-05-14T16:39:10.647Z,94.00
2018-05-14T16:41:38.155Z,94.10
2018-05-14T16:44:05.617Z,94.20
2018-05-14T16:46:34.020Z,94.30
2018-05-14T16:49:01.534Z,94.40
2018-05-14T16:51:28.908Z,94.50
2018-05-14T16:53:56.322Z,94.70
2018-05-14T16:56:23.801Z,94.80
2018-05-14T16:58:51.246Z,94.80
2018-05-14T17:01:19.680Z,95.00
2018-05-14T17:03:47.129Z,95.30
2018-05-14T17:06:24.911Z,95.10
2018-05-14T17:08:55.583Z,94.90
2018-05-14T17:11:25.077Z,94.70
2018-05-14T17:13:52.546Z,94.70
2018-05-14T17:16:20.039Z,94.70
2018-05-14T17:18:48.306Z,95.10
2018-05-14T17:21:15.747Z,95.10
2018-05-14T17:23:43.442Z,95.00
2018-05-14T17:26:10.975Z,95.10
2018-05-14T17:28:38.595Z,95.00
2018-05-14T17:31:07.019Z,94.70
2018-05-14T17:33:35.256Z,94.50
2018-05-14T17:36:03.513Z,94.40
2018-05-14T17:38:30.974Z,94.40
2018-05-14T17:40:58.423Z,94.40
2018-05-14T17:43:25.870Z,94.30
2018-05-14T17:45:54.235Z,94.40
2018-05-14T17:48:21.667Z,94.40
2018-05-14T17:50:49.119Z,94.50
2018-05-14T17:53:16.593Z,94.70
2018-05-14T17:55:44.070Z,94.80
2018-05-14T17:58:11.651Z,94.90
2018-05-14T18:00:39.115Z,95.10
2018-05-14T18:03:06.570Z,95.20
2018-05-14T18:05:34.880Z,95.50
2018-05-14T18:08:03.376Z,95.40
2018-05-14T18:10:30.896Z,95.50
2018-05-14T18:12:58.402Z,95.50
2018-05-14T18:15:25.943Z,95.50
2018-05-14T18:17:53.452Z,95.40
2018-05-14T18:20:25.909Z,95.40
2018-05-14T18:22:53.350Z,95.50
2018-05-14T18:25:26.594Z,95.60
2018-05-14T18:27:59.921Z,95.50
2018-05-14T18:30:28.283Z,95.50
2018-05-14T18:33:01.398Z,95.60
2018-05-14T18:35:40.813Z,95.60
2018-05-14T18:38:08.503Z,95.50
2018-05-14T18:40:36.468Z,95.60
2018-05-14T18:43:03.979Z,95.70
2018-05-14T18:45:31.588Z,95.80
2018-05-14T18:47:59.371Z,95.90
2018-05-14T18:50:26.874Z,96.20
2018-05-14T18:52:54.328Z,96.40
2018-05-14T18:55:21.948Z,96.70
2018-05-14T18:57:49.484Z,96.90
2018-05-14T19:00:17.121Z,96.90
2018-05-14T19:02:44.853Z,96.90
2018-05-14T19:05:12.308Z,96.80
2018-05-14T19:07:40.145Z,96.90
2018-05-14T19:10:13.466Z,97.30
2018-05-14T19:12:41.256Z,97.20
2018-05-14T19:15:14.588Z,97.20
2018-05-14T19:17:47.837Z,97.20
2018-05-14T19:20:15.420Z,97.20
2018-05-14T19:22:48.530Z,97.30
2018-05-14T19:25:16.013Z,97.70
2018-05-14T19:27:49.179Z,98.00
2018-05-14T19:30:18.684Z,98.20
2018-05-14T19:32:46.415Z,98.40
2018-05-14T19:35:19.511Z,98.50
2018-05-14T19:37:46.947Z,98.50
2018-05-14T19:40:20.083Z,98.60
2018-05-14T19:42:47.631Z,98.60
2018-05-14T19:45:15.107Z,98.90
2018-05-14T19:47:42.647Z,98.70
2018-05-14T19:50:10.980Z,98.60
2018-05-14T19:52:38.528Z,98.60
2018-05-14T19:55:06.973Z,98.60
2018-05-14T19:57:34.719Z,98.50
2018-05-14T20:00:02.488Z,98.40
2018-05-14T20:02:30.089Z,98.40
2018-05-14T20:04:58.422Z,98.40
2018-05-14T20:07:26.111Z,98.40
2018-05-14T20:09:54.185Z,98.40
2018-05-14T20:12:22.320Z,98.50
2018-05-14T20:14:50.310Z,98.60
2018-05-14T20:17:18.496Z,98.60
2018-05-14T20:19:46.090Z,98.60
2018-05-14T20:22:13.923Z,98.30
2018-05-14T20:24:41.491Z,98.20
2018-05-14T20:27:09.149Z,97.90
2018-05-14T20:29:36.810Z,97.80
2018-05-14T20:32:04.372Z,97.80
2018-05-14T20:34:32.000Z,97.70
2018-05-14T20:36:59.450Z,97.70
2018-05-14T20:41:59.192Z,97.80
2018-05-14T20:44:27.564Z,97.90
2018-05-14T20:46:55.281Z,97.90
2018-05-14T20:49:22.827Z,97.90
2018-05-14T20:51:52.494Z,98.00
2018-05-14T20:54:19.972Z,98.00
2018-05-14T20:56:47.428Z,98.00
2018-05-14T20:59:15.692Z,98.10
2018-05-14T21:01:43.150Z,98.00
2018-05-14T21:04:10.592Z,98.40
2018-05-14T21:06:38.055Z,98.10
2018-05-14T21:09:06.432Z,98.10
2018-05-14T21:11:33.964Z,98.00
2018-05-14T21:14:01.463Z,98.00
2018-05-14T21:16:28.935Z,97.90
2018-05-14T21:18:56.374Z,97.90
2018-05-14T21:21:23.861Z,97.90
2018-05-14T21:23:51.282Z,97.90
2018-05-14T21:26:18.740Z,98.00
2018-05-14T21:28:46.210Z,97.90
2018-05-14T21:31:13.721Z,97.90
2018-05-14T21:33:41.134Z,97.90
2018-05-14T21:36:08.610Z,97.90
2018-05-14T21:38:36.045Z,98.00
2018-05-14T21:41:03.489Z,98.00
2018-05-14T21:43:30.931Z,98.00
2018-05-14T21:45:58.364Z,98.00
2018-05-14T21:48:25.826Z,98.00
2018-05-14T21:50:53.271Z,98.00
2018-05-14T21:53:20.735Z,98.00
2018-05-14T21:55:48.214Z,98.10
2018-05-14T21:58:16.737Z,98.00
2018-05-14T22:00:44.167Z,98.00
2018-05-14T22:03:11.615Z,98.20
2018-05-14T22:05:50.650Z,98.10
2018-05-14T22:08:18.127Z,98.20
2018-05-14T22:10:45.711Z,98.20
2018-05-14T22:13:13.153Z,98.20
2018-05-14T22:15:40.638Z,98.30
2018-05-14T22:18:08.118Z,98.40
2018-05-14T22:20:35.620Z,98.40
2018-05-14T22:23:03.069Z,98.50
2018-05-14T22:25:30.599Z,98.50
2018-05-14T22:27:57.964Z,98.40
2018-05-14T22:30:25.399Z,98.50
2018-05-14T22:32:52.836Z,98.60
2018-05-14T22:35:20.313Z,98.60
2018-05-14T22:37:47.780Z,98.50
2018-05-14T22:40:15.223Z,98.50
2018-05-14T22:42:42.702Z,98.60
2018-05-14T22:45:10.142Z,98.70
2018-05-14T22:47:37.588Z,98.70
2018-05-14T22:50:05.056Z,98.60
2018-05-14T22:52:33.267Z,98.70
2018-05-14T22:55:00.705Z,98.70
2018-05-14T22:57:28.146Z,98.50
2018-05-14T22:59:55.625Z,98.30
2018-05-14T23:02:23.042Z,98.20
2018-05-14T23:04:50.485Z,98.30
2018-05-14T23:07:17.938Z,98.30
2018-05-14T23:09:45.387Z,98.20
2018-05-14T23:12:12.832Z,98.20
2018-05-14T23:14:40.279Z,98.10
2018-05-14T23:17:07.886Z,98.10
2018-05-14T23:19:35.322Z,98.40
2018-05-14T23:22:02.755Z,98.10
2018-05-14T23:24:30.207Z,98.10
2018-05-14T23:26:57.662Z,98.20
2018-05-14T23:29:25.099Z,98.30
2018-05-14T23:31:52.554Z,98.30
2018-05-14T23:34:19.995Z,98.40
2018-05-14T23:36:47.476Z,98.40
2018-05-14T23:39:14.899Z,98.50
2018-05-14T23:41:42.326Z,98.50
2018-05-14T23:44:09.780Z,98.70
2018-05-14T23:46:37.971Z,98.80
2018-05-14T23:49:05.427Z,98.80
2018-05-14T23:51:32.863Z,98.80
2018-05-14T23:54:00.303Z,98.80
2018-05-14T23:56:27.769Z,98.90
2018-05-14T23:58:55.210Z,98.80
